createdAt,value
2022-12-04T00:01:24.788Z,4.50
2022-12-04T00:04:00.243Z,4.50
2022-12-04T00:06:28.149Z,4.50
2022-12-04T00:08:55.455Z,4.50
2022-12-04T00:11:25.547Z,4.50
2022-12-04T00:13:52.814Z,4.50
2022-12-04T00:16:23.234Z,4.50
2022-12-04T00:18:51.044Z,4.50
2022-12-04T00:21:19.543Z,4.50
2022-12-04T00:23:46.994Z,4.50
2022-12-04T00:26:19.322Z,4.50
2022-12-04T00:28:47.000Z,4.50
2022-12-04T00:31:18.015Z,4.50
2022-12-04T00:33:48.718Z,4.50
2022-12-04T00:36:18.588Z,4.50
2022-12-04T00:38:46.210Z,4.50
2022-12-04T00:41:16.338Z,4.50
2022-12-04T00:43:46.029Z,4.50
2022-12-04T00:46:13.447Z,4.40
2022-12-04T00:48:41.218Z,4.40
2022-12-04T00:51:12.442Z,4.50
2022-12-04T00:53:44.423Z,4.50
2022-12-04T00:56:18.452Z,4.50
2022-12-04T00:58:46.423Z,4.50
2022-12-04T01:01:16.365Z,4.50
2022-12-04T01:03:44.386Z,4.50
2022-12-04T01:06:33.112Z,4.40
2022-12-04T01:09:07.124Z,4.50
2022-12-04T01:11:35.644Z,4.50
2022-12-04T01:14:04.622Z,4.50
2022-12-04T01:16:40.242Z,4.50
2022-12-04T01:19:11.261Z,4.40
2022-12-04T01:21:42.736Z,4.40
2022-12-04T01:24:15.733Z,4.40
2022-12-04T01:26:50.089Z,4.50
2022-12-04T01:29:20.728Z,4.40
2022-12-04T01:31:57.618Z,4.40
2022-12-04T01:34:25.628Z,4.40
2022-12-04T01:36:53.689Z,4.40
2022-12-04T01:39:21.172Z,4.50
2022-12-04T01:41:48.923Z,4.50
2022-12-04T01:44:25.742Z,4.50
2022-12-04T01:46:57.999Z,4.50
2022-12-04T01:49:37.725Z,4.50
2022-12-04T01:52:14.498Z,4.50
2022-12-04T01:54:50.623Z,4.50
2022-12-04T01:57:27.105Z,4.50
2022-12-04T02:00:01.181Z,4.50
2022-12-04T02:02:40.622Z,4.50
2022-12-04T02:05:15.488Z,4.50
2022-12-04T02:07:45.636Z,4.60
2022-12-04T02:10:14.093Z,4.60
2022-12-04T02:12:53.124Z,4.60
2022-12-04T02:15:45.328Z,4.60
2022-12-04T02:18:34.238Z,4.60
2022-12-04T02:21:27.316Z,4.60
2022-12-04T02:24:19.487Z,4.60
2022-12-04T02:26:57.300Z,4.60
2022-12-04T02:29:55.273Z,4.50
2022-12-04T02:32:37.978Z,4.60
2022-12-04T02:35:33.609Z,4.60
2022-12-04T02:38:29.734Z,4.60
2022-12-04T02:41:17.324Z,4.50
2022-12-04T02:44:02.668Z,4.50
2022-12-04T02:46:39.424Z,4.50
2022-12-04T02:49:17.202Z,4.50
2022-12-04T02:51:47.496Z,4.50
2022-12-04T02:54:35.148Z,4.50
2022-12-04T02:57:05.524Z,4.50
2022-12-04T02:59:40.445Z,4.50
2022-12-04T03:02:15.336Z,4.50
2022-12-04T03:04:44.579Z,4.50
2022-12-04T03:07:20.989Z,4.50
2022-12-04T03:10:20.385Z,4.50
2022-12-04T03:12:53.261Z,4.50
2022-12-04T03:15:31.758Z,4.50
2022-12-04T03:18:10.567Z,4.50
2022-12-04T03:20:39.801Z,4.50
2022-12-04T03:23:28.878Z,4.50
2022-12-04T03:26:01.987Z,4.50
2022-12-04T03:28:40.911Z,4.50
2022-12-04T03:31:14.958Z,4.50
2022-12-04T03:33:46.906Z,4.50
2022-12-04T03:36:23.456Z,4.60
2022-12-04T03:38:57.920Z,4.50
2022-12-04T03:41:49.596Z,4.60
2022-12-04T03:45:00.085Z,4.60
2022-12-04T03:47:43.445Z,4.60
2022-12-04T03:50:35.067Z,4.60
2022-12-04T03:53:20.916Z,4.60
2022-12-04T03:55:57.818Z,4.60
2022-12-04T03:58:30.396Z,4.60
2022-12-04T04:01:00.188Z,4.50
2022-12-04T04:03:34.364Z,4.50
2022-12-04T04:06:25.733Z,4.50
2022-12-04T04:08:58.750Z,4.50
2022-12-04T04:11:36.603Z,4.50
2022-12-04T04:14:36.954Z,4.50
2022-12-04T04:17:31.288Z,4.50
2022-12-04T04:20:29.364Z,4.50
2022-12-04T04:23:17.907Z,4.50
2022-12-04T04:25:46.893Z,4.50
2022-12-04T04:28:34.284Z,4.50
2022-12-04T04:31:10.620Z,4.50
2022-12-04T04:33:49.681Z,4.50
2022-12-04T04:36:25.428Z,4.50
2022-12-04T04:39:14.677Z,4.50
2022-12-04T04:41:54.661Z,4.50
2022-12-04T04:44:29.272Z,4.50
2022-12-04T04:47:00.809Z,4.50
2022-12-04T04:49:32.837Z,4.50
2022-12-04T04:52:01.210Z,4.50
2022-12-04T04:54:30.246Z,4.50
2022-12-04T04:56:59.448Z,4.50
2022-12-04T04:59:26.930Z,4.60
2022-12-04T05:01:54.184Z,4.60
2022-12-04T05:04:21.298Z,4.50
2022-12-04T05:06:50.937Z,4.50
2022-12-04T05:09:20.632Z,4.50
2022-12-04T05:11:47.993Z,4.60
2022-12-04T05:14:15.325Z,4.50
2022-12-04T05:16:42.592Z,4.60
2022-12-04T05:19:29.588Z,4.60
2022-12-04T05:21:57.647Z,4.60
2022-12-04T05:24:25.131Z,4.60
2022-12-04T05:26:54.281Z,4.60
2022-12-04T05:29:22.386Z,4.60
2022-12-04T05:31:52.081Z,4.50
2022-12-04T05:34:19.579Z,4.60
2022-12-04T05:36:46.623Z,4.60
2022-12-04T05:39:14.778Z,4.60
2022-12-04T05:41:42.522Z,4.60
2022-12-04T05:44:12.227Z,4.60
2022-12-04T05:46:42.497Z,4.60
2022-12-04T05:49:12.674Z,4.60
2022-12-04T05:51:40.026Z,4.60
2022-12-04T05:54:10.585Z,4.60
2022-12-04T05:56:47.568Z,4.60
2022-12-04T05:59:17.996Z,4.60
2022-12-04T06:01:47.624Z,4.60
2022-12-04T06:04:14.842Z,4.60
2022-12-04T06:06:41.778Z,4.60
2022-12-04T06:09:11.913Z,4.60
2022-12-04T06:11:40.481Z,4.70
2022-12-04T06:14:10.237Z,4.70
2022-12-04T06:16:39.392Z,4.60
2022-12-04T06:19:09.288Z,4.60
2022-12-04T06:21:38.967Z,4.60
2022-12-04T06:24:06.672Z,4.60
2022-12-04T06:26:33.822Z,4.60
2022-12-04T06:29:01.242Z,4.60
2022-12-04T06:31:29.850Z,4.60
2022-12-04T06:33:57.905Z,4.60
2022-12-04T06:36:27.441Z,4.60
2022-12-04T06:38:56.774Z,4.60
2022-12-04T06:41:25.397Z,4.60
2022-12-04T06:43:52.429Z,4.60
2022-12-04T06:46:24.999Z,4.60
2022-12-04T06:48:53.763Z,4.60
2022-12-04T06:51:26.483Z,4.60
2022-12-04T06:53:53.785Z,4.60
2022-12-04T06:56:23.372Z,4.50
2022-12-04T06:58:52.944Z,4.50
2022-12-04T07:01:23.321Z,4.60
2022-12-04T07:03:52.783Z,4.60
2022-12-04T07:06:37.524Z,4.60
2022-12-04T07:09:10.669Z,4.60
2022-12-04T07:11:38.780Z,4.60
2022-12-04T07:14:05.716Z,4.60
2022-12-04T07:16:39.957Z,4.60
2022-12-04T07:19:12.458Z,4.60
2022-12-04T07:21:39.449Z,4.60
2022-12-04T07:24:06.581Z,4.60
2022-12-04T07:26:33.470Z,4.60
2022-12-04T07:29:00.747Z,4.60
2022-12-04T07:31:28.980Z,4.60
2022-12-04T07:33:56.843Z,4.60
2022-12-04T07:36:24.827Z,4.60
2022-12-04T07:38:52.113Z,4.60
2022-12-04T07:41:22.092Z,4.60
2022-12-04T07:43:49.243Z,4.60
2022-12-04T07:46:19.456Z,4.60
2022-12-04T07:48:49.134Z,4.60
2022-12-04T07:51:25.341Z,4.70
2022-12-04T07:53:53.472Z,4.60
2022-12-04T07:56:22.903Z,4.60
2022-12-04T07:58:50.470Z,4.60
2022-12-04T08:01:27.294Z,4.60
2022-12-04T08:03:57.079Z,4.60
2022-12-04T08:06:25.616Z,4.60
2022-12-04T08:08:53.286Z,4.70
2022-12-04T08:11:25.587Z,4.70
2022-12-04T08:14:00.799Z,4.70
2022-12-04T08:16:29.870Z,4.70
2022-12-04T08:18:57.468Z,4.70
2022-12-04T08:21:26.689Z,4.70
2022-12-04T08:23:55.149Z,4.70
2022-12-04T08:26:23.890Z,4.70
2022-12-04T08:28:53.623Z,4.70
2022-12-04T08:31:26.725Z,4.70
2022-12-04T08:33:55.406Z,4.70
2022-12-04T08:36:22.439Z,4.80
2022-12-04T08:38:49.784Z,4.70
2022-12-04T08:41:19.087Z,4.80
2022-12-04T08:43:46.355Z,4.80
2022-12-04T08:46:16.190Z,4.80
2022-12-04T08:48:46.859Z,4.80
2022-12-04T08:51:16.760Z,4.80
2022-12-04T08:53:43.786Z,4.80
2022-12-04T08:56:10.993Z,4.90
2022-12-04T08:58:38.492Z,4.90
2022-12-04T09:01:13.496Z,4.90
2022-12-04T09:03:41.415Z,4.90
2022-12-04T09:06:12.104Z,5.00
2022-12-04T09:08:39.242Z,5.00
2022-12-04T09:11:12.519Z,5.00
2022-12-04T09:13:40.888Z,5.00
2022-12-04T09:16:10.461Z,5.00
2022-12-04T09:18:38.677Z,5.00
2022-12-04T09:21:08.643Z,5.00
2022-12-04T09:23:36.740Z,5.10
2022-12-04T09:26:04.738Z,5.10
2022-12-04T09:28:31.588Z,5.10
2022-12-04T09:30:59.275Z,5.10
2022-12-04T09:33:26.510Z,5.10
2022-12-04T09:35:53.505Z,5.20
2022-12-04T09:38:20.820Z,5.20
2022-12-04T09:41:21.241Z,5.20
2022-12-04T09:43:59.212Z,5.20
2022-12-04T09:46:40.129Z,5.20
2022-12-04T09:49:25.499Z,5.30
2022-12-04T09:51:56.273Z,5.30
2022-12-04T09:54:29.738Z,5.20
2022-12-04T09:57:21.101Z,5.30
2022-12-04T09:59:51.127Z,5.30
2022-12-04T10:02:42.006Z,5.40
2022-12-04T10:05:18.306Z,5.40
2022-12-04T10:08:05.121Z,5.40
2022-12-04T10:10:41.404Z,5.50
2022-12-04T10:13:26.885Z,5.40
2022-12-04T10:16:16.051Z,5.40
2022-12-04T10:19:02.133Z,5.40
2022-12-04T10:21:54.814Z,5.40
2022-12-04T10:24:51.880Z,5.30
2022-12-04T10:27:39.750Z,5.30
2022-12-04T10:30:23.188Z,5.20
2022-12-04T10:33:16.388Z,5.20
2022-12-04T10:35:47.654Z,5.20
2022-12-04T10:38:42.629Z,5.10
2022-12-04T10:41:45.307Z,5.10
2022-12-04T10:44:17.738Z,5.10
2022-12-04T10:46:46.667Z,5.10
2022-12-04T10:49:20.222Z,5.10
2022-12-04T10:51:47.819Z,5.10
2022-12-04T10:54:30.296Z,5.10
2022-12-04T10:57:02.160Z,5.10
2022-12-04T10:59:29.942Z,5.10
2022-12-04T11:02:06.892Z,5.20
2022-12-04T11:04:35.454Z,5.20
2022-12-04T11:07:16.092Z,5.20
2022-12-04T11:09:43.008Z,5.20
2022-12-04T11:12:21.749Z,5.20
2022-12-04T11:14:58.949Z,5.20
2022-12-04T11:17:26.019Z,5.10
2022-12-04T11:20:17.323Z,5.10
2022-12-04T11:23:14.796Z,5.10
2022-12-04T11:25:48.124Z,5.10
2022-12-04T11:28:42.832Z,5.20
2022-12-04T11:31:10.753Z,5.20
2022-12-04T11:33:59.099Z,5.20
2022-12-04T11:36:34.193Z,5.20
2022-12-04T11:39:11.675Z,5.10
2022-12-04T11:41:38.988Z,5.10
2022-12-04T11:44:07.584Z,5.10
2022-12-04T11:46:35.247Z,5.00
2022-12-04T11:49:03.589Z,5.10
2022-12-04T11:51:30.456Z,5.10
2022-12-04T11:54:07.365Z,5.10
2022-12-04T11:56:38.897Z,5.20
2022-12-04T11:59:33.318Z,5.20
2022-12-04T12:02:03.141Z,5.20
2022-12-04T12:04:51.385Z,5.20
2022-12-04T12:07:18.191Z,5.20
2022-12-04T12:10:18.995Z,5.10
2022-12-04T12:12:51.723Z,5.10
2022-12-04T12:15:25.009Z,5.10
2022-12-04T12:18:09.738Z,5.10
2022-12-04T12:21:20.059Z,5.10
2022-12-04T12:24:20.707Z,5.20
2022-12-04T12:27:36.945Z,5.20
2022-12-04T12:30:15.854Z,5.30
2022-12-04T12:32:54.516Z,5.30
2022-12-04T12:35:31.259Z,5.30
2022-12-04T12:38:10.802Z,5.30
2022-12-04T12:40:47.399Z,5.30
2022-12-04T12:43:23.108Z,5.30
2022-12-04T12:46:00.403Z,5.20
2022-12-04T12:48:32.628Z,5.20
2022-12-04T12:51:29.138Z,5.20
2022-12-04T12:54:00.236Z,5.20
2022-12-04T12:56:46.119Z,5.30
2022-12-04T12:59:24.165Z,5.30
2022-12-04T13:02:01.456Z,5.30
2022-12-04T13:04:43.988Z,5.20
2022-12-04T13:07:16.649Z,5.30
2022-12-04T13:09:56.644Z,5.30
2022-12-04T13:12:24.643Z,5.30
2022-12-04T13:14:51.577Z,5.30
2022-12-04T13:17:26.335Z,5.30
2022-12-04T13:19:57.467Z,5.30
2022-12-04T13:23:02.315Z,5.30
2022-12-04T13:25:34.225Z,5.30
2022-12-04T13:28:12.842Z,5.30
2022-12-04T13:30:48.528Z,5.30
2022-12-04T13:33:54.843Z,5.30
2022-12-04T13:36:48.998Z,5.30
2022-12-04T13:39:45.794Z,5.30
2022-12-04T13:42:39.100Z,5.30
2022-12-04T13:45:25.200Z,5.30
2022-12-04T13:48:03.326Z,5.30
2022-12-04T13:50:36.089Z,5.30
2022-12-04T13:53:04.123Z,5.30
2022-12-04T13:55:39.396Z,5.30
2022-12-04T13:58:12.293Z,5.30
2022-12-04T14:00:42.710Z,5.30
2022-12-04T14:03:27.535Z,5.20
2022-12-04T14:05:55.023Z,5.20
2022-12-04T14:08:39.429Z,5.30
2022-12-04T14:11:20.144Z,5.30
2022-12-04T14:14:01.177Z,5.30
2022-12-04T14:16:41.232Z,5.30
2022-12-04T14:19:09.173Z,5.30
2022-12-04T14:21:41.380Z,5.30
2022-12-04T14:24:37.218Z,5.30
2022-12-04T14:27:34.657Z,5.30
2022-12-04T14:30:02.576Z,5.30
2022-12-04T14:32:33.756Z,5.30
2022-12-04T14:35:02.425Z,5.30
2022-12-04T14:37:35.478Z,5.30
2022-12-04T14:40:09.677Z,5.30
2022-12-04T14:42:40.843Z,5.30
2022-12-04T14:45:26.786Z,5.30
2022-12-04T14:48:13.681Z,5.30
2022-12-04T14:51:12.041Z,5.30
2022-12-04T14:54:07.130Z,5.30
2022-12-04T14:57:19.387Z,5.30
2022-12-04T14:59:52.629Z,5.40
2022-12-04T15:02:32.025Z,5.40
2022-12-04T15:05:00.139Z,5.30
2022-12-04T15:07:31.723Z,5.30
2022-12-04T15:10:19.769Z,5.30
2022-12-04T15:12:52.616Z,5.30
2022-12-04T15:15:25.761Z,5.30
2022-12-04T15:18:10.190Z,5.30
2022-12-04T15:20:58.972Z,5.30
2022-12-04T15:23:44.057Z,5.30
2022-12-04T15:26:12.909Z,5.30
2022-12-04T15:28:51.420Z,5.30
2022-12-04T15:31:27.329Z,5.30
2022-12-04T15:34:04.026Z,5.30
2022-12-04T15:36:59.470Z,5.30
2022-12-04T15:39:28.498Z,5.30
2022-12-04T15:42:21.570Z,5.30
2022-12-04T15:45:01.073Z,5.30
2022-12-04T15:47:31.191Z,5.30
2022-12-04T15:50:31.745Z,5.30
2022-12-04T15:53:19.732Z,5.30
2022-12-04T15:55:53.111Z,5.30
2022-12-04T15:58:32.210Z,5.30
2022-12-04T16:01:05.189Z,5.30
2022-12-04T16:03:37.582Z,5.30
2022-12-04T16:06:28.947Z,5.30
2022-12-04T16:09:24.209Z,5.30
2022-12-04T16:12:19.405Z,5.30
2022-12-04T16:14:46.259Z,5.30
2022-12-04T16:17:14.124Z,5.30
2022-12-04T16:19:42.400Z,5.20
2022-12-04T16:22:23.713Z,5.20
2022-12-04T16:24:51.308Z,5.20
2022-12-04T16:27:22.550Z,5.30
2022-12-04T16:29:54.031Z,5.30
2022-12-04T16:32:36.017Z,5.30
2022-12-04T16:35:05.559Z,5.20
2022-12-04T16:37:32.624Z,5.30
2022-12-04T16:39:59.563Z,5.30
2022-12-04T16:42:29.708Z,5.30
2022-12-04T16:44:57.963Z,5.30
2022-12-04T16:47:24.913Z,5.30
2022-12-04T16:49:52.541Z,5.40
2022-12-04T16:52:20.311Z,5.40
2022-12-04T16:54:47.506Z,5.40
2022-12-04T16:57:14.503Z,5.30
2022-12-04T16:59:41.551Z,5.30
2022-12-04T17:02:17.164Z,5.30
2022-12-04T17:04:44.424Z,5.30
2022-12-04T17:07:14.797Z,5.30
2022-12-04T17:09:44.212Z,5.30
2022-12-04T17:12:11.211Z,5.30
2022-12-04T17:14:39.067Z,5.30
2022-12-04T17:17:06.177Z,5.30
2022-12-04T17:19:34.877Z,5.30
2022-12-04T17:22:01.959Z,5.40
2022-12-04T17:24:28.918Z,5.40
2022-12-04T17:26:55.771Z,5.40
2022-12-04T17:29:22.651Z,5.40
2022-12-04T17:31:49.671Z,5.40
2022-12-04T17:34:16.835Z,5.40
2022-12-04T17:36:43.779Z,5.40
2022-12-04T17:39:11.941Z,5.30
2022-12-04T17:41:39.880Z,5.40
2022-12-04T17:44:06.692Z,5.40
2022-12-04T17:46:33.662Z,5.40
2022-12-04T17:49:06.602Z,5.40
2022-12-04T17:51:37.833Z,5.40
2022-12-04T17:54:05.804Z,5.40
2022-12-04T17:56:36.068Z,5.40
2022-12-04T17:59:03.761Z,5.40
2022-12-04T18:01:31.861Z,5.40
2022-12-04T18:04:03.321Z,5.40
2022-12-04T18:06:36.643Z,5.40
2022-12-04T18:09:05.979Z,5.50
2022-12-04T18:11:35.156Z,5.50
2022-12-04T18:16:53.137Z,5.50
2022-12-04T18:19:22.658Z,5.50
2022-12-04T18:21:50.843Z,5.50
2022-12-04T18:24:17.917Z,5.50
2022-12-04T18:26:48.195Z,5.50
2022-12-04T18:29:18.850Z,5.50
2022-12-04T18:31:48.936Z,5.50
2022-12-04T18:34:16.422Z,5.50
2022-12-04T18:36:45.431Z,5.60
2022-12-04T18:39:18.472Z,5.60
2022-12-04T18:41:46.009Z,5.60
2022-12-04T18:44:13.034Z,5.60
2022-12-04T18:46:40.314Z,5.70
2022-12-04T18:49:09.305Z,5.60
2022-12-04T18:54:26.726Z,5.60
2022-12-04T18:56:53.832Z,5.60
2022-12-04T18:59:26.716Z,5.60
2022-12-04T19:01:54.644Z,5.60
2022-12-04T19:04:23.532Z,5.70
2022-12-04T19:06:53.979Z,5.70
2022-12-04T19:12:14.511Z,5.70
2022-12-04T19:14:41.573Z,5.70
2022-12-04T19:17:09.120Z,5.70
2022-12-04T19:19:36.699Z,5.80
2022-12-04T19:22:04.258Z,5.80
2022-12-04T19:24:31.315Z,5.80
2022-12-04T19:26:58.226Z,5.80
2022-12-04T19:29:25.168Z,5.80
2022-12-04T19:31:57.633Z,5.80
2022-12-04T19:34:27.400Z,5.80
2022-12-04T19:36:54.973Z,5.80
2022-12-04T19:39:27.376Z,5.80
2022-12-04T19:41:54.560Z,5.80
2022-12-04T19:47:10.575Z,5.80
2022-12-04T19:49:38.185Z,5.80
2022-12-04T19:52:05.523Z,5.90
2022-12-04T19:54:32.652Z,5.90
2022-12-04T19:56:59.779Z,5.90
2022-12-04T19:59:35.983Z,5.90
2022-12-04T20:02:05.231Z,5.80
2022-12-04T20:04:32.275Z,5.90
2022-12-04T20:06:59.196Z,5.90
2022-12-04T20:09:27.524Z,5.90
2022-12-04T20:11:54.571Z,5.90
2022-12-04T20:14:21.543Z,5.90
2022-12-04T20:16:48.820Z,5.90
2022-12-04T20:19:17.626Z,5.90
2022-12-04T20:21:46.123Z,5.90
2022-12-04T20:24:15.714Z,5.90
2022-12-04T20:26:44.431Z,5.90
2022-12-04T20:29:14.049Z,5.90
2022-12-04T20:31:44.553Z,5.90
2022-12-04T20:34:18.260Z,5.90
2022-12-04T20:36:51.969Z,5.90
2022-12-04T20:39:20.301Z,5.90
2022-12-04T20:41:47.241Z,5.90
2022-12-04T20:44:16.399Z,5.90
2022-12-04T20:46:46.191Z,5.90
2022-12-04T20:49:22.547Z,6.00
2022-12-04T20:51:56.014Z,6.00
2022-12-04T20:54:23.396Z,6.00
2022-12-04T20:56:54.748Z,6.00
2022-12-04T20:59:23.109Z,6.00
2022-12-04T21:01:51.899Z,6.00
2022-12-04T21:04:19.786Z,6.00
2022-12-04T21:06:47.064Z,6.00
2022-12-04T21:09:33.619Z,6.00
2022-12-04T21:12:02.157Z,6.00
2022-12-04T21:14:50.820Z,6.00
2022-12-04T21:17:24.074Z,6.10
2022-12-04T21:20:01.478Z,6.10
2022-12-04T21:22:38.437Z,6.00
2022-12-04T21:25:09.982Z,6.10
2022-12-04T21:27:38.071Z,6.10
2022-12-04T21:30:06.530Z,6.10
2022-12-04T21:32:36.889Z,6.10
2022-12-04T21:35:14.078Z,6.10
2022-12-04T21:37:41.924Z,6.10
2022-12-04T21:40:14.678Z,6.10
2022-12-04T21:42:44.996Z,6.10
2022-12-04T21:45:14.836Z,6.10
2022-12-04T21:47:42.929Z,6.10
2022-12-04T21:50:17.315Z,6.20
2022-12-04T21:53:14.294Z,6.10
2022-12-04T21:55:57.373Z,6.20
2022-12-04T21:58:29.263Z,6.20
2022-12-04T22:01:03.599Z,6.20
2022-12-04T22:03:31.687Z,6.20
2022-12-04T22:06:01.224Z,6.20
2022-12-04T22:08:30.102Z,6.20
2022-12-04T22:11:01.984Z,6.20
2022-12-04T22:13:29.816Z,6.30
2022-12-04T22:15:57.246Z,6.30
2022-12-04T22:18:24.583Z,6.20
2022-12-04T22:20:52.443Z,6.20
2022-12-04T22:23:20.016Z,6.20
2022-12-04T22:25:47.759Z,6.30
2022-12-04T22:28:15.740Z,6.30
2022-12-04T22:30:43.160Z,6.30
2022-12-04T22:33:11.784Z,6.30
2022-12-04T22:35:40.141Z,6.30
2022-12-04T22:38:10.345Z,6.30
2022-12-04T22:40:42.003Z,6.30
2022-12-04T22:43:12.493Z,6.30
2022-12-04T22:45:43.015Z,6.30
2022-12-04T22:48:14.791Z,6.40
2022-12-04T22:50:42.888Z,6.30
2022-12-04T22:53:18.470Z,6.40
2022-12-04T22:55:46.216Z,6.30
2022-12-04T22:58:21.240Z,6.30
2022-12-04T23:00:49.797Z,6.40
2022-12-04T23:03:20.052Z,6.40
2022-12-04T23:05:49.973Z,6.40
2022-12-04T23:08:21.555Z,6.40
2022-12-04T23:10:52.036Z,6.50
2022-12-04T23:13:27.118Z,6.40
2022-12-04T23:15:57.655Z,6.40
2022-12-04T23:18:28.142Z,6.50
2022-12-04T23:21:07.661Z,6.50
2022-12-04T23:23:38.073Z,6.50
2022-12-04T23:26:20.300Z,6.50
2022-12-04T23:28:48.909Z,6.50
2022-12-04T23:31:18.646Z,6.50
2022-12-04T23:33:48.495Z,6.50
2022-12-04T23:36:18.793Z,6.50
2022-12-04T23:38:48.586Z,6.50
2022-12-04T23:41:22.713Z,6.50
2022-12-04T23:43:51.345Z,6.50
2022-12-04T23:46:22.207Z,6.50
2022-12-04T23:48:52.632Z,6.50
2022-12-04T23:51:20.538Z,6.50
2022-12-04T23:53:50.009Z,6.50
2022-12-04T23:56:23.744Z,6.50
2022-12-04T23:58:52.993Z,6.60
